Anzegem, Belgium
Current Conditions -  °F | °C
As of 1:25 PM on Sunday 21 Dec 2014 (Local Time) from EBCV Reporting Station
Broken Clouds Broken Clouds  
Wind Chill: 39°   Ceiling: 3600
Heat Index: 46°   Visibility: 6mi
Dew Point: 41°   Wind: 17mph
Humidity: 81%   Direction: 240°WSW
Pressure: 30.42"   Gusts: NA
Location:  50.84°N, 3.48°E
Report Text: EBCV 211225Z AUTO 24015KT 9999 FEW017/// SCT027/// BKN036/// 08/05 Q1030 BLU
Loading
Personal Weather Stations






























Interactive Weather Map New forecast layout! Learn more

10-Day Weather Forecast

Advertisements
Track Severe Weather on mobile